Speer, Illinois
Current Conditions -  °F | °C
As of 3:55 PM on Monday 20 Oct 2014 (Local Time) from KC75 Reporting Station
Scattered Clouds Scattered Clouds  
Wind Chill: 65°   Ceiling: Unl
Heat Index: 65°   Visibility: 10mi
Dew Point: 42°   Wind: 15mph
Humidity: 43%   Direction: 320°NW
Pressure: 29.91"   Gusts: 22mph
Location:  40.99°N, 89.65°W
Report Text: KC75 202055Z AUTO 32013G19KT 10SM SCT055 18/06 A2991 RMK AO2 T01830056
Loading
Personal Weather Stations






























Interactive Weather Map
Tropical Storm Tracking
New forecast layout! Learn more

10-Day Weather Forecast

Advertisements
Track Severe Weather on mobile